Time;durP1;ratioP1;P1;durP2;ratioP2;P2;SDS_P1;SDS_P2;PMS_P1;PMS_P2;Temp;Humidity;BMP_temperature;BMP_pressure;BME280_temperature;BME280_humidity;BME280_pressure;Samples;Min_cycle;Max_cycle;Signal;HPM_P1;HPM_P2
2022/06/05 00:01:11;;;;;;;8.33;7.63;;;20.80;99.90;;;;;;5005084;28;20188;-72
2022/06/05 00:03:53;;;;;;;7.40;6.80;;;20.80;99.90;;;;;;5004906;28;20429;-72
2022/06/05 00:06:37;;;;;;;7.90;7.20;;;20.80;99.90;;;;;;5004558;28;20469;-72
2022/06/05 00:09:20;;;;;;;9.77;8.87;;;20.80;99.90;;;;;;5004889;28;20672;-72
2022/06/05 00:12:05;;;;;;;9.27;8.40;;;20.70;99.90;;;;;;5004361;28;20501;-72
2022/06/05 00:14:31;;;;;;;8.30;7.70;;;20.70;99.90;;;;;;5003580;28;20434;-73
2022/06/05 00:16:56;;;;;;;9.20;8.40;;;20.80;99.90;;;;;;5004701;28;20987;-72
2022/06/05 00:19:22;;;;;;;7.70;7.10;;;20.70;99.90;;;;;;5004533;28;20461;-72
2022/06/05 00:21:49;;;;;;;7.80;7.03;;;20.80;99.90;;;;;;5004770;28;20215;-72
2022/06/05 00:24:15;;;;;;;7.83;7.23;;;20.80;99.90;;;;;;5004437;28;20180;-72
2022/06/05 00:26:46;;;;;;;8.80;8.10;;;20.90;99.90;;;;;;5005077;28;20959;-73
2022/06/05 00:29:50;;;;;;;8.10;7.50;;;21.00;99.90;;;;;;5004712;28;20783;-73
2022/06/05 00:32:33;;;;;;;7.90;7.30;;;21.00;99.90;;;;;;5001702;28;20435;-73
2022/06/05 00:34:58;;;;;;;8.13;7.53;;;21.00;99.90;;;;;;5004722;28;20414;-73
2022/06/05 00:37:51;;;;;;;7.17;6.67;;;20.90;99.90;;;;;;5004754;28;20438;-71
2022/06/05 00:40:34;;;;;;;8.60;7.90;;;20.90;99.90;;;;;;5004920;28;20180;-73
2022/06/05 00:43:04;;;;;;;8.53;7.90;;;20.90;99.90;;;;;;5004800;28;20798;-72
2022/06/05 00:45:31;;;;;;;7.97;7.37;;;20.90;99.90;;;;;;5004287;28;20461;-73
2022/06/05 00:47:57;;;;;;;7.77;7.23;;;20.80;99.90;;;;;;5005137;28;20423;-72
2022/06/05 00:50:30;;;;;;;8.50;7.80;;;20.90;99.90;;;;;;5004889;28;20609;-73
2022/06/05 00:52:59;;;;;;;9.40;8.60;;;20.90;99.90;;;;;;5003341;28;20427;-73
2022/06/05 00:55:27;;;;;;;8.37;7.67;;;20.80;99.90;;;;;;5004705;28;20419;-73
2022/06/05 00:57:54;;;;;;;8.43;7.73;;;20.80;99.90;;;;;;5004731;28;20498;-72
2022/06/05 01:00:24;;;;;;;8.90;8.20;;;20.70;99.90;;;;;;5004053;28;20422;-73
2022/06/05 01:02:53;;;;;;;8.37;7.70;;;20.80;99.90;;;;;;5004567;28;20411;-72
2022/06/05 01:05:20;;;;;;;8.17;7.47;;;20.80;99.90;;;;;;5004204;28;20470;-72
2022/06/05 01:07:46;;;;;;;7.50;7.00;;;20.80;99.90;;;;;;5004355;28;20430;-73
2022/06/05 01:10:14;;;;;;;8.10;7.50;;;20.80;99.90;;;;;;5002945;28;20904;-72
2022/06/05 01:13:03;;;;;;;8.13;7.47;;;20.80;99.90;;;;;;5004180;28;20513;-72
2022/06/05 01:15:54;;;;;;;8.07;7.47;;;20.70;99.90;;;;;;5003460;28;20426;-72
2022/06/05 01:18:41;;;;;;;9.57;8.40;;;20.70;99.90;;;;;;5006660;28;20419;-72
2022/06/05 01:21:37;;;;;;;7.27;6.67;;;20.70;99.90;;;;;;5006584;28;20427;-73
2022/06/05 01:24:35;;;;;;;8.53;7.93;;;20.70;99.90;;;;;;5007612;28;20510;-72
2022/06/05 01:27:04;;;;;;;8.60;8.00;;;20.60;99.90;;;;;;5007902;28;20441;-73
2022/06/05 01:29:35;;;;;;;8.20;7.50;;;20.60;99.90;;;;;;5007491;28;21489;-72
2022/06/05 01:32:09;;;;;;;7.90;7.30;;;20.60;99.90;;;;;;5007509;28;20407;-74
2022/06/05 01:34:50;;;;;;;8.80;8.20;;;20.40;99.90;;;;;;5007492;28;20925;-73
2022/06/05 01:37:26;;;;;;;8.97;8.07;;;20.40;99.90;;;;;;5007709;28;20430;-72
2022/06/05 01:40:04;;;;;;;8.83;8.10;;;20.50;99.90;;;;;;5007638;28;20488;-73
2022/06/05 01:42:35;;;;;;;8.57;7.80;;;20.60;99.90;;;;;;5007655;28;20414;-73
2022/06/05 01:45:07;;;;;;;9.10;8.40;;;20.50;99.90;;;;;;5005834;28;20475;-72
2022/06/05 01:47:37;;;;;;;10.23;9.43;;;20.30;99.90;;;;;;5007593;28;21022;-73
2022/06/05 01:50:28;;;;;;;9.03;8.23;;;20.10;99.90;;;;;;5007330;28;20419;-72
2022/06/05 01:53:13;;;;;;;9.70;8.90;;;20.20;99.90;;;;;;5007171;28;20490;-73
2022/06/05 01:55:45;;;;;;;8.47;7.67;;;20.30;99.90;;;;;;5007093;28;20416;-72
2022/06/05 01:58:14;;;;;;;8.60;7.90;;;20.40;99.90;;;;;;5007390;28;20411;-72
2022/06/05 02:00:40;;;;;;;8.73;8.03;;;20.40;99.90;;;;;;5006985;28;20950;-73
2022/06/05 02:03:18;;;;;;;8.83;8.13;;;20.30;99.90;;;;;;5007229;28;20471;-73
2022/06/05 02:06:05;;;;;;;11.03;10.10;;;20.20;99.90;;;;;;5007206;28;20476;-73
2022/06/05 02:08:40;;;;;;;10.00;9.20;;;20.00;99.90;;;;;;5006899;28;20494;-72
2022/06/05 02:11:22;;;;;;;9.70;9.00;;;19.90;99.90;;;;;;5007199;28;20927;-73
2022/06/05 02:13:50;;;;;;;11.33;10.33;;;19.80;99.90;;;;;;5006849;28;20411;-73
2022/06/05 02:16:17;;;;;;;10.83;10.03;;;19.70;99.90;;;;;;5006607;28;20528;-72
2022/06/05 02:18:43;;;;;;;10.57;9.67;;;19.80;99.90;;;;;;5006455;28;20439;-74
2022/06/05 02:21:09;;;;;;;10.20;9.40;;;19.90;99.90;;;;;;5007025;28;20505;-74
2022/06/05 02:23:37;;;;;;;8.83;8.13;;;20.00;99.90;;;;;;5006674;28;20418;-74
2022/06/05 02:26:04;;;;;;;9.97;9.03;;;20.00;99.90;;;;;;5006526;28;20204;-73
2022/06/05 02:28:30;;;;;;;9.00;8.40;;;20.00;99.90;;;;;;5005748;28;20900;-73
2022/06/05 02:31:20;;;;;;;9.60;8.90;;;20.20;99.90;;;;;;5006071;28;20661;-73
2022/06/05 02:34:22;;;;;;;11.23;10.13;;;20.20;99.90;;;;;;5006638;28;20591;-72
2022/06/05 02:37:00;;;;;;;11.23;10.33;;;20.00;99.90;;;;;;5002636;28;20454;-73
2022/06/05 02:39:42;;;;;;;11.07;10.00;;;20.00;99.90;;;;;;5005210;28;20426;-73
2022/06/05 02:42:23;;;;;;;12.07;11.13;;;20.10;99.90;;;;;;5006885;28;20411;-73
2022/06/05 02:44:52;;;;;;;11.20;10.30;;;20.00;99.90;;;;;;5006471;28;20585;-74
2022/06/05 02:47:33;;;;;;;11.60;10.60;;;20.00;99.90;;;;;;5006446;28;20431;-73
2022/06/05 02:50:24;;;;;;;13.90;12.50;;;20.20;99.90;;;;;;5006895;28;20482;-74
2022/06/05 02:52:51;;;;;;;12.03;11.10;;;20.10;99.90;;;;;;5004820;28;20421;-72
2022/06/05 02:55:21;;;;;;;11.87;10.87;;;20.20;99.90;;;;;;5006180;28;20411;-71
2022/06/05 02:57:47;;;;;;;9.83;9.03;;;20.40;99.90;;;;;;5006266;28;20509;-72
2022/06/05 03:00:18;;;;;;;9.93;9.20;;;20.40;99.90;;;;;;5004545;28;20437;-72
2022/06/05 03:05:29;;;;;;;9.00;8.20;;;20.30;99.90;;;;;;5005956;28;20876;-71
2022/06/05 03:07:55;;;;;;;10.10;9.20;;;20.40;99.90;;;;;;5005979;28;20431;-72
2022/06/05 03:10:21;;;;;;;9.70;8.70;;;20.50;99.90;;;;;;5005899;28;20180;-73
2022/06/05 03:12:46;;;;;;;9.73;8.93;;;20.40;99.90;;;;;;5006332;28;20429;-72
2022/06/05 03:15:15;;;;;;;9.27;8.47;;;20.50;99.90;;;;;;5006133;28;20238;-73
2022/06/05 03:17:43;;;;;;;8.97;8.17;;;20.50;99.90;;;;;;5005889;28;20215;-73
2022/06/05 03:20:10;;;;;;;9.30;8.50;;;20.60;99.90;;;;;;5006031;28;20419;-72
2022/06/05 03:22:36;;;;;;;10.43;9.63;;;20.60;99.90;;;;;;5006265;28;20423;-72
2022/06/05 03:25:02;;;;;;;9.30;8.60;;;20.70;99.90;;;;;;5005830;28;20458;-73
2022/06/05 03:27:30;;;;;;;9.67;8.97;;;20.60;99.90;;;;;;5005406;28;20974;-72
2022/06/05 03:29:56;;;;;;;9.90;9.20;;;20.60;99.90;;;;;;5005106;28;20946;-71
2022/06/05 03:32:22;;;;;;;9.13;8.40;;;20.60;99.90;;;;;;5005106;28;20423;-72
2022/06/05 03:34:48;;;;;;;9.33;8.53;;;20.50;99.90;;;;;;5005718;28;20454;-72
2022/06/05 03:37:14;;;;;;;10.90;9.90;;;20.60;99.90;;;;;;5003752;28;20930;-73
2022/06/05 03:39:39;;;;;;;11.23;10.27;;;20.40;99.90;;;;;;5004809;28;20230;-73
2022/06/05 03:42:06;;;;;;;9.20;8.40;;;20.30;99.90;;;;;;5004882;28;20193;-73
2022/06/05 03:44:39;;;;;;;8.97;8.27;;;20.30;99.90;;;;;;5005080;28;20672;-69
2022/06/05 03:47:05;;;;;;;9.73;9.03;;;20.30;99.90;;;;;;5004935;28;20850;-72
2022/06/05 03:49:32;;;;;;;8.90;8.20;;;20.30;99.90;;;;;;5003788;28;20549;-73
2022/06/05 03:51:58;;;;;;;7.93;7.33;;;20.50;99.90;;;;;;5005197;28;20518;-72
2022/06/05 03:54:23;;;;;;;9.30;8.60;;;20.50;99.90;;;;;;5004909;28;21134;-71
2022/06/05 03:56:49;;;;;;;9.30;8.60;;;20.50;99.90;;;;;;5005085;28;20203;-72
2022/06/05 03:59:15;;;;;;;10.63;9.73;;;20.50;99.90;;;;;;5004779;28;20645;-71
2022/06/05 04:01:40;;;;;;;12.00;10.90;;;20.50;99.90;;;;;;5004685;28;20180;-72
2022/06/05 04:04:06;;;;;;;11.63;10.53;;;20.30;99.90;;;;;;5004592;28;20529;-71
2022/06/05 04:06:32;;;;;;;11.57;10.60;;;20.30;99.90;;;;;;5004741;28;20282;-72
2022/06/05 04:09:00;;;;;;;11.13;10.23;;;20.40;99.90;;;;;;5004545;28;20186;-73
2022/06/05 04:11:29;;;;;;;10.43;9.70;;;20.50;99.90;;;;;;5004449;28;20434;-72
2022/06/05 04:13:55;;;;;;;12.10;11.13;;;20.60;99.90;;;;;;5003289;28;20443;-72
2022/06/05 04:16:24;;;;;;;11.77;10.67;;;20.50;99.90;;;;;;5004062;28;20462;-72
2022/06/05 04:18:51;;;;;;;10.10;9.30;;;20.40;99.90;;;;;;5004047;28;20186;-72
2022/06/05 04:21:22;;;;;;;11.70;10.67;;;20.60;99.90;;;;;;5004539;28;20839;-72
2022/06/05 04:23:49;;;;;;;10.80;9.90;;;20.80;99.90;;;;;;5004073;28;20415;-69
2022/06/05 04:26:19;;;;;;;12.17;11.20;;;20.80;99.90;;;;;;5004243;28;20479;-72
2022/06/05 04:28:45;;;;;;;12.80;11.77;;;20.70;99.90;;;;;;5004136;28;20411;-73
2022/06/05 04:31:22;;;;;;;11.23;10.33;;;20.50;99.90;;;;;;5003931;28;20506;-71
2022/06/05 04:33:49;;;;;;;13.60;12.30;;;20.40;99.90;;;;;;5004177;28;20410;-72
2022/06/05 04:36:15;;;;;;;12.23;11.20;;;20.30;99.90;;;;;;5004317;28;20450;-72
2022/06/05 04:38:41;;;;;;;12.70;11.63;;;20.50;99.90;;;;;;5004746;28;20473;-71
2022/06/05 04:41:06;;;;;;;11.97;10.97;;;20.60;99.90;;;;;;5004512;28;20188;-72
2022/06/05 04:43:32;;;;;;;12.73;11.70;;;20.50;99.90;;;;;;5004907;28;20219;-72
2022/06/05 04:45:58;;;;;;;10.57;9.77;;;20.60;99.90;;;;;;5003937;28;20322;-72
2022/06/05 04:48:23;;;;;;;13.60;12.50;;;20.70;99.90;;;;;;5004275;28;20211;-73
2022/06/05 04:50:49;;;;;;;12.87;11.63;;;20.60;99.90;;;;;;5004280;28;20266;-72
2022/06/05 04:53:15;;;;;;;12.53;11.53;;;20.40;99.90;;;;;;5006795;28;20184;-70
2022/06/05 04:55:40;;;;;;;12.30;11.10;;;20.30;99.90;;;;;;5007944;28;20559;-73
2022/06/05 04:58:06;;;;;;;11.90;11.00;;;20.30;99.90;;;;;;5008251;28;20183;-73
2022/06/05 05:00:32;;;;;;;13.27;12.30;;;20.40;99.90;;;;;;5007660;28;20176;-72
2022/06/05 05:02:57;;;;;;;13.87;12.87;;;20.40;99.90;;;;;;4990271;28;20198;-72
2022/06/05 05:05:23;;;;;;;11.60;10.50;;;20.40;99.90;;;;;;5007695;28;20212;-72
2022/06/05 05:07:49;;;;;;;13.40;12.27;;;20.50;99.90;;;;;;5006465;28;20188;-72
2022/06/05 05:10:14;;;;;;;15.23;14.03;;;20.40;99.90;;;;;;5007529;28;20564;-72
2022/06/05 05:12:40;;;;;;;14.73;13.63;;;20.20;99.90;;;;;;5007866;28;20215;-71
2022/06/05 05:15:07;;;;;;;14.40;13.13;;;20.10;99.90;;;;;;5007601;28;20188;-72
2022/06/05 05:17:33;;;;;;;15.63;14.40;;;20.00;99.90;;;;;;5007878;28;20498;-72
2022/06/05 05:19:58;;;;;;;14.13;13.03;;;19.90;99.90;;;;;;5007637;28;20461;-73
2022/06/05 05:22:25;;;;;;;15.70;14.40;;;20.10;99.90;;;;;;5007290;28;20552;-73
2022/06/05 05:24:50;;;;;;;16.83;15.53;;;20.20;99.90;;;;;;5007341;28;20200;-73
2022/06/05 05:27:16;;;;;;;14.47;13.37;;;20.20;99.90;;;;;;5007388;28;20861;-72
2022/06/05 05:29:42;;;;;;;14.70;13.40;;;20.30;99.90;;;;;;5007060;28;20705;-73
2022/06/05 05:32:09;;;;;;;14.53;13.23;;;20.20;99.90;;;;;;5007473;28;20180;-72
2022/06/05 05:34:35;;;;;;;15.00;13.80;;;20.10;99.90;;;;;;5007151;28;20188;-70
2022/06/05 05:37:01;;;;;;;15.37;14.07;;;20.30;99.90;;;;;;5007444;28;20443;-72
2022/06/05 05:42:12;;;;;;;16.13;14.83;;;20.40;99.90;;;;;;5007212;28;20179;-73
2022/06/05 05:44:40;;;;;;;15.47;14.17;;;20.30;99.90;;;;;;5007573;28;20972;-72
2022/06/05 05:47:09;;;;;;;17.03;15.50;;;20.30;99.90;;;;;;5005674;28;20438;-72
2022/06/05 05:49:35;;;;;;;14.87;13.70;;;20.10;99.90;;;;;;5005806;28;20415;-71
2022/06/05 05:52:01;;;;;;;17.13;15.67;;;20.20;99.90;;;;;;5007228;28;20418;-74
2022/06/05 05:54:26;;;;;;;17.10;15.70;;;20.20;99.90;;;;;;5007473;28;21038;-73
2022/06/05 05:56:52;;;;;;;15.17;13.87;;;20.10;99.90;;;;;;5007103;28;20223;-72
2022/06/05 05:59:19;;;;;;;15.73;14.43;;;20.10;99.90;;;;;;5005608;28;20563;-72
2022/06/05 06:01:45;;;;;;;16.03;14.63;;;20.20;99.90;;;;;;5006467;28;20188;-72
2022/06/05 06:04:11;;;;;;;14.23;13.10;;;20.10;99.90;;;;;;5007063;28;20493;-73
2022/06/05 06:06:40;;;;;;;14.87;13.57;;;20.00;99.90;;;;;;5007055;28;20442;-72
2022/06/05 06:09:06;;;;;;;13.60;12.47;;;19.80;99.90;;;;;;5007245;28;21253;-72
2022/06/05 06:11:32;;;;;;;15.90;14.50;;;19.60;99.90;;;;;;5007308;28;20419;-73
2022/06/05 06:13:58;;;;;;;14.73;13.37;;;19.50;99.90;;;;;;5007024;28;20183;-73
2022/06/05 06:16:23;;;;;;;13.63;12.23;;;19.40;99.90;;;;;;5006498;28;20971;-72
2022/06/05 06:18:49;;;;;;;13.87;12.67;;;19.20;99.90;;;;;;5005884;28;20199;-72
2022/06/05 06:21:15;;;;;;;16.40;15.00;;;19.00;99.90;;;;;;5007380;28;20186;-71
2022/06/05 06:23:40;;;;;;;14.10;12.73;;;18.80;99.90;;;;;;5007368;28;20227;-72
2022/06/05 06:26:08;;;;;;;15.10;13.80;;;18.60;99.90;;;;;;5006854;28;20668;-73
2022/06/05 06:28:33;;;;;;;13.47;12.20;;;18.50;99.90;;;;;;5007687;28;20192;-72
2022/06/05 06:31:07;;;;;;;12.70;11.60;;;18.30;99.90;;;;;;5007115;28;20446;-72
2022/06/05 06:33:33;;;;;;;11.90;10.77;;;18.20;99.90;;;;;;5006655;28;20180;-72
2022/06/05 06:36:04;;;;;;;11.40;10.23;;;18.30;99.90;;;;;;5006622;28;20524;-71
2022/06/05 06:38:30;;;;;;;11.10;10.00;;;18.30;99.90;;;;;;5006452;28;20175;-72
2022/06/05 06:41:07;;;;;;;14.23;13.00;;;18.30;99.90;;;;;;5006813;28;21049;-72
2022/06/05 06:43:33;;;;;;;15.40;14.00;;;18.20;99.90;;;;;;5006914;28;20187;-72
2022/06/05 06:45:59;;;;;;;12.97;11.97;;;18.10;99.90;;;;;;5005990;28;20471;-72
2022/06/05 06:48:26;;;;;;;11.83;10.70;;;18.10;99.90;;;;;;5006224;28;20433;-72
2022/06/05 06:50:53;;;;;;;11.57;9.77;;;18.20;99.90;;;;;;5006123;28;20657;-72
2022/06/05 06:53:19;;;;;;;10.07;8.57;;;18.20;99.90;;;;;;5005950;28;20977;-72
2022/06/05 06:55:45;;;;;;;9.30;8.60;;;18.30;99.90;;;;;;5006239;28;20442;-73
2022/06/05 06:58:11;;;;;;;8.03;7.40;;;18.40;99.90;;;;;;5006176;28;20786;-72
2022/06/05 07:00:36;;;;;;;8.73;8.00;;;18.40;99.90;;;;;;5006041;28;20282;-74
2022/06/05 07:03:02;;;;;;;7.90;7.23;;;18.60;99.90;;;;;;5006023;28;20665;-72
2022/06/05 07:05:27;;;;;;;6.87;6.13;;;18.70;99.90;;;;;;5004698;28;20222;-71
2022/06/05 07:07:53;;;;;;;7.27;6.67;;;18.90;99.90;;;;;;5006196;28;20183;-74
2022/06/05 07:10:19;;;;;;;6.20;5.63;;;19.10;99.90;;;;;;5006440;28;20557;-72
2022/06/05 07:12:44;;;;;;;6.30;5.70;;;19.00;99.90;;;;;;5005948;28;20199;-72
2022/06/05 07:15:10;;;;;;;6.43;5.43;;;19.00;99.90;;;;;;5004979;28;20555;-72
2022/06/05 07:17:36;;;;;;;4.83;3.73;;;18.90;99.90;;;;;;5004832;28;20231;-72
2022/06/05 07:20:02;;;;;;;5.30;4.80;;;18.80;99.90;;;;;;5005697;28;20191;-73
2022/06/05 07:22:28;;;;;;;5.90;5.40;;;18.80;99.90;;;;;;5005674;28;20657;-73
2022/06/05 07:24:54;;;;;;;7.33;5.60;;;18.90;99.90;;;;;;5004893;28;20459;-72
2022/06/05 07:27:19;;;;;;;6.30;5.80;;;19.00;99.90;;;;;;5005583;28;20664;-72
2022/06/05 07:29:45;;;;;;;6.10;5.20;;;19.10;99.90;;;;;;5005730;28;20226;-72
2022/06/05 07:32:13;;;;;;;5.90;5.40;;;18.90;99.90;;;;;;5005855;28;20557;-72
2022/06/05 07:34:39;;;;;;;5.07;4.63;;;19.10;99.90;;;;;;5004431;28;20188;-72
2022/06/05 07:37:05;;;;;;;5.40;5.00;;;19.20;99.90;;;;;;5005015;28;20442;-72
2022/06/05 07:39:31;;;;;;;5.77;4.60;;;19.40;99.90;;;;;;5005797;28;20423;-72
2022/06/05 07:41:59;;;;;;;5.13;4.17;;;19.60;99.90;;;;;;5005678;28;20646;-72
2022/06/05 07:44:26;;;;;;;5.77;5.10;;;19.80;99.90;;;;;;5005327;28;20180;-72
2022/06/05 07:46:52;;;;;;;5.10;3.97;;;19.80;99.90;;;;;;5006375;28;20438;-74
2022/06/05 07:49:18;;;;;;;4.63;4.23;;;19.70;99.90;;;;;;5006676;28;20443;-73
2022/06/05 07:54:31;;;;;;;7.47;4.83;;;19.80;99.90;;;;;;5004934;28;20469;-73
2022/06/05 07:56:59;;;;;;;4.07;3.60;;;20.00;99.90;;;;;;5005153;28;20431;-73
2022/06/05 07:59:27;;;;;;;4.27;3.87;;;20.20;99.90;;;;;;5006122;28;20426;-72
2022/06/05 08:01:52;;;;;;;4.70;3.57;;;20.30;99.90;;;;;;5005445;28;20439;-73
2022/06/05 08:04:18;;;;;;;4.37;3.77;;;20.40;99.90;;;;;;5004510;28;20466;-73
2022/06/05 08:06:43;;;;;;;4.17;3.50;;;20.60;99.90;;;;;;5005255;28;20295;-73
2022/06/05 08:09:09;;;;;;;4.60;3.80;;;20.70;99.90;;;;;;5005265;28;20180;-71
2022/06/05 08:11:36;;;;;;;4.57;3.90;;;20.50;99.90;;;;;;5004177;28;20387;-72
2022/06/05 08:14:02;;;;;;;6.17;4.30;;;20.20;99.90;;;;;;5004416;28;20184;-72
2022/06/05 08:16:28;;;;;;;5.47;4.03;;;20.00;99.90;;;;;;5004790;28;20466;-72
2022/06/05 08:18:54;;;;;;;3.87;3.50;;;20.10;99.90;;;;;;5005147;28;20430;-72
2022/06/05 08:21:21;;;;;;;4.23;3.83;;;20.10;99.90;;;;;;5004530;28;20489;-73
2022/06/05 08:23:47;;;;;;;3.97;3.40;;;20.30;99.90;;;;;;5003240;28;20414;-73
2022/06/05 08:26:13;;;;;;;4.10;3.70;;;20.40;99.90;;;;;;5004031;28;20474;-71
2022/06/05 08:28:40;;;;;;;4.10;3.30;;;20.40;99.90;;;;;;5004823;28;20282;-71
2022/06/05 08:31:06;;;;;;;3.37;2.90;;;20.50;99.90;;;;;;5004951;28;21018;-73
2022/06/05 08:33:32;;;;;;;4.13;3.67;;;20.70;99.90;;;;;;5004047;28;20427;-72
2022/06/05 08:35:57;;;;;;;3.90;3.40;;;20.90;99.90;;;;;;5004782;28;20465;-71
2022/06/05 08:41:26;;;;;;;3.90;3.00;;;21.40;99.90;;;;;;5003843;28;20187;-72
2022/06/05 08:44:02;;;;;;;3.23;2.40;;;21.40;99.90;;;;;;5005294;28;20644;-72
2022/06/05 08:46:36;;;;;;;2.97;2.67;;;21.50;99.90;;;;;;5004942;28;20473;-72
2022/06/05 08:49:11;;;;;;;3.87;2.47;;;21.20;99.90;;;;;;5004878;28;20781;-72
2022/06/05 08:52:13;;;;;;;3.90;2.80;;;21.20;99.90;;;;;;5004836;28;20409;-72
2022/06/05 08:54:51;;;;;;;2.70;2.50;;;21.10;99.90;;;;;;4990503;28;20439;-72
2022/06/05 08:57:38;;;;;;;2.87;2.67;;;21.20;99.90;;;;;;5004769;28;20989;-72
2022/06/05 09:00:17;;;;;;;3.40;2.43;;;21.40;99.90;;;;;;5004659;28;20410;-71
2022/06/05 09:03:12;;;;;;;2.80;2.50;;;21.60;99.90;;;;;;5003530;28;20489;-72
2022/06/05 09:05:44;;;;;;;2.90;2.20;;;22.00;99.90;;;;;;5004482;28;20473;-73
2022/06/05 09:08:14;;;;;;;2.50;2.20;;;22.30;99.90;;;;;;5004267;28;20464;-73
2022/06/05 09:10:39;;;;;;;3.30;2.10;;;22.40;99.90;;;;;;5004139;28;20923;-73
2022/06/05 09:13:16;;;;;;;4.43;2.20;;;22.50;99.90;;;;;;5004131;28;20414;-72
2022/06/05 09:15:51;;;;;;;5.40;2.07;;;22.80;99.90;;;;;;5004330;28;20190;-73
2022/06/05 09:18:21;;;;;;;3.20;2.30;;;22.60;99.90;;;;;;5004659;28;20422;-73
2022/06/05 09:20:55;;;;;;;2.70;1.70;;;22.60;99.90;;;;;;5003437;28;20423;-72
2022/06/05 09:23:26;;;;;;;2.83;1.90;;;23.00;99.90;;;;;;5004382;28;20422;-72
2022/06/05 09:25:54;;;;;;;3.40;1.50;;;23.60;99.90;;;;;;5004222;28;20471;-70
2022/06/05 09:28:40;;;;;;;2.43;1.73;;;23.60;99.90;;;;;;5003950;28;20625;-72
2022/06/05 09:31:24;;;;;;;3.40;1.97;;;23.70;99.90;;;;;;5003860;28;20430;-73
2022/06/05 09:33:54;;;;;;;3.30;2.03;;;24.00;99.90;;;;;;5004135;28;20778;-73
2022/06/05 09:36:24;;;;;;;3.80;1.97;;;23.90;99.90;;;;;;5003048;28;20482;-74
2022/06/05 09:39:22;;;;;;;2.90;1.80;;;23.70;99.90;;;;;;5005232;28;20407;-73
2022/06/05 09:42:00;;;;;;;3.20;1.37;;;23.50;99.90;;;;;;5007367;28;20454;-72
2022/06/05 09:44:48;;;;;;;4.00;1.80;;;23.60;99.90;;;;;;5007229;28;20445;-73
2022/06/05 09:47:23;;;;;;;1.40;1.30;;;23.50;99.90;;;;;;5006643;28;20525;-70
2022/06/05 09:49:55;;;;;;;5.80;2.20;;;23.50;99.90;;;;;;5007541;28;20414;-72
2022/06/05 09:52:24;;;;;;;3.00;1.70;;;23.50;99.90;;;;;;5007441;28;20410;-73
2022/06/05 09:55:08;;;;;;;2.60;1.57;;;23.80;99.90;;;;;;5007572;28;20888;-75
2022/06/05 10:00:42;;;;;;;3.83;1.67;;;24.40;99.90;;;;;;5007323;28;20484;-73
2022/06/05 10:03:14;;;;;;;2.60;1.50;;;24.40;99.90;;;;;;5007031;28;20439;-73
2022/06/05 10:05:46;;;;;;;2.10;1.77;;;24.60;99.90;;;;;;5006840;28;20219;-72
2022/06/05 10:08:21;;;;;;;3.80;1.53;;;25.00;99.90;;;;;;5005069;28;20455;-73
2022/06/05 10:10:49;;;;;;;3.03;1.70;;;25.30;99.90;;;;;;5006314;28;20446;-73
2022/06/05 10:13:38;;;;;;;2.43;1.63;;;25.50;99.90;;;;;;5006539;28;20417;-72
2022/06/05 10:16:23;;;;;;;2.60;1.37;;;25.80;99.90;;;;;;5001105;28;20533;-74
2022/06/05 10:19:10;;;;;;;3.03;1.33;;;26.40;99.90;;;;;;5006353;28;20505;-72
2022/06/05 10:21:41;;;;;;;2.23;1.40;;;26.00;99.90;;;;;;5006575;28;20406;-74
2022/06/05 10:24:35;;;;;;;2.90;1.53;;;25.40;99.90;;;;;;5006661;28;20795;-75
2022/06/05 10:27:02;;;;;;;3.03;1.57;;;25.10;99.90;;;;;;5006983;28;20434;-74
2022/06/05 10:29:30;;;;;;;2.80;1.80;;;24.50;99.90;;;;;;5007266;28;20507;-75
2022/06/05 10:32:44;;;;;;;2.40;1.70;;;24.40;99.90;;;;;;5006644;28;20412;-73
2022/06/05 10:35:21;;;;;;;3.93;1.90;;;24.20;99.90;;;;;;5006619;28;20402;-75
2022/06/05 10:37:53;;;;;;;2.57;1.97;;;24.10;99.90;;;;;;5007505;28;20610;-74
2022/06/05 10:40:48;;;;;;;2.90;1.87;;;24.10;99.90;;;;;;5006590;28;20445;-74
2022/06/05 10:43:26;;;;;;;3.37;1.87;;;24.10;99.90;;;;;;5007063;28;20814;-74
2022/06/05 10:45:54;;;;;;;4.50;2.77;;;23.90;99.90;;;;;;5005892;28;20493;-76
2022/06/05 10:48:38;;;;;;;4.20;3.30;;;23.50;99.90;;;;;;5006068;28;20398;-74
2022/06/05 10:51:11;;;;;;;6.23;4.17;;;23.00;99.90;;;;;;5004362;28;20430;-74
2022/06/05 10:53:46;;;;;;;4.37;3.97;;;22.60;99.90;;;;;;5006130;28;20453;-73
2022/06/05 10:56:50;;;;;;;5.53;3.90;;;22.20;99.90;;;;;;5006004;28;20443;-74
2022/06/05 10:59:27;;;;;;;5.10;3.63;;;21.80;99.90;;;;;;5005549;28;20509;-75
2022/06/05 11:02:31;;;;;;;8.10;4.70;;;21.70;99.90;;;;;;5005977;28;20518;-74
2022/06/05 11:05:41;;;;;;;6.50;5.20;;;21.70;99.90;;;;;;5005571;28;20582;-74
2022/06/05 11:08:30;;;;;;;7.73;5.67;;;21.80;99.90;;;;;;4978812;28;20923;-74
2022/06/05 11:13:52;;;;;;;5.60;5.10;;;21.60;99.90;;;;;;5004491;28;20447;-73
2022/06/05 11:16:26;;;;;;;7.10;5.37;;;21.80;99.90;;;;;;5005021;28;20505;-74
2022/06/05 11:19:22;;;;;;;5.20;4.70;;;21.90;99.90;;;;;;5005083;28;21442;-74
2022/06/05 11:21:50;;;;;;;7.10;4.53;;;21.90;99.90;;;;;;5003371;28;20839;-73
2022/06/05 11:24:23;;;;;;;7.60;5.40;;;21.70;99.90;;;;;;5004640;28;20825;-75
2022/06/05 11:27:13;;;;;;;4.73;4.20;;;21.50;99.90;;;;;;5005549;28;20439;-75
2022/06/05 11:30:06;;;;;;;6.37;3.50;;;21.20;99.90;;;;;;5005022;28;20410;-73
2022/06/05 11:32:55;;;;;;;3.97;3.43;;;21.30;99.90;;;;;;5005525;28;20579;-75
2022/06/05 11:35:33;;;;;;;4.23;3.90;;;21.20;99.90;;;;;;5004308;28;20419;-73
2022/06/05 11:38:20;;;;;;;6.87;3.53;;;21.30;99.90;;;;;;5002959;28;20429;-73
2022/06/05 11:40:56;;;;;;;5.40;3.83;;;21.70;99.90;;;;;;5004863;28;20431;-76
2022/06/05 11:43:39;;;;;;;5.30;3.60;;;21.70;99.90;;;;;;5004465;28;20411;-74
2022/06/05 11:46:22;;;;;;;5.27;3.60;;;22.10;99.90;;;;;;5004279;28;20490;-75
2022/06/05 11:49:10;;;;;;;4.17;3.67;;;22.20;99.90;;;;;;5004766;28;20755;-74
2022/06/05 11:52:01;;;;;;;3.77;3.00;;;22.60;99.90;;;;;;5004149;28;20497;-74
2022/06/05 11:54:37;;;;;;;6.40;4.20;;;24.10;99.90;;;;;;5003480;28;20756;-77
2022/06/05 11:57:21;;;;;;;6.57;3.33;;;25.50;99.90;;;;;;5004342;28;20447;-75
2022/06/05 12:00:10;;;;;;;4.90;3.13;;;26.20;99.90;;;;;;5004465;28;20395;-74
2022/06/05 12:02:48;;;;;;;3.63;3.00;;;27.00;99.90;;;;;;5004053;28;20751;-75
2022/06/05 12:05:43;;;;;;;4.37;2.63;;;28.40;99.90;;;;;;5003232;28;20490;-74
2022/06/05 12:08:31;;;;;;;6.60;2.40;;;28.60;99.90;;;;;;5004295;28;21640;-76
2022/06/05 12:11:12;;;;;;;3.27;2.90;;;28.50;99.90;;;;;;5003458;28;20407;-77
2022/06/05 12:13:50;;;;;;;4.13;2.70;;;28.10;99.90;;;;;;5003597;28;20411;-74
2022/06/05 12:16:15;;;;;;;3.23;2.83;;;27.20;99.90;;;;;;5004187;28;20454;-76
2022/06/05 12:18:49;;;;;;;2.57;2.00;;;27.50;99.90;;;;;;5003154;28;20469;-74
2022/06/05 12:21:27;;;;;;;6.30;2.60;;;27.80;99.90;;;;;;5003227;28;20770;-74
2022/06/05 12:24:10;;;;;;;2.87;2.10;;;28.30;99.90;;;;;;5004388;28;20406;-75
2022/06/05 12:26:49;;;;;;;3.30;2.20;;;27.80;99.90;;;;;;5003401;28;20502;-74
2022/06/05 12:29:32;;;;;;;2.50;1.80;;;27.20;99.90;;;;;;5003762;28;20418;-75
2022/06/05 12:32:06;;;;;;;3.70;2.27;;;27.20;99.90;;;;;;5003998;28;20437;-73
2022/06/05 12:34:45;;;;;;;2.80;2.10;;;26.60;99.90;;;;;;5020799;22;20493;-75
2022/06/05 12:37:20;;;;;;;3.20;2.40;;;26.30;99.90;;;;;;5004038;28;20391;-72
2022/06/05 12:39:53;;;;;;;4.20;2.27;;;25.70;99.90;;;;;;5002422;28;20409;-73
2022/06/05 12:42:27;;;;;;;5.67;3.00;;;25.50;99.90;;;;;;5004180;28;20906;-73
2022/06/05 12:45:25;;;;;;;4.77;2.80;;;25.70;99.90;;;;;;5002956;28;20450;-72
2022/06/05 12:48:00;;;;;;;4.80;3.10;;;26.30;99.90;;;;;;5003927;28;20434;-73
2022/06/05 12:50:43;;;;;;;3.27;2.50;;;27.40;99.90;;;;;;5004171;28;20414;-72
2022/06/05 12:53:28;;;;;;;3.40;3.00;;;28.70;99.90;;;;;;5004232;28;20417;-75
2022/06/05 12:56:22;;;;;;;4.00;2.73;;;29.70;99.90;;;;;;5003857;28;20529;-72
2022/06/05 12:58:55;;;;;;;4.20;2.30;;;30.70;99.90;;;;;;5003905;28;20415;-70
2022/06/05 13:01:33;;;;;;;2.77;2.03;;;31.70;98.80;;;;;;5004888;28;20411;-70
2022/06/05 13:04:20;;;;;;;4.30;2.30;;;30.60;99.90;;;;;;5004936;28;20434;-71
2022/06/05 13:07:04;;;;;;;4.47;2.90;;;30.00;99.90;;;;;;5004829;28;20750;-73
2022/06/05 13:09:36;;;;;;;7.13;2.60;;;30.10;99.90;;;;;;5005814;28;20410;-73
2022/06/05 13:12:23;;;;;;;4.93;2.23;;;30.50;99.90;;;;;;5005798;28;20419;-72
2022/06/05 13:15:07;;;;;;;2.60;2.13;;;30.90;99.90;;;;;;5008486;28;20430;-72
2022/06/05 13:17:33;;;;;;;4.53;2.20;;;30.50;98.80;;;;;;5008833;28;20418;-75
2022/06/05 13:20:11;;;;;;;2.80;2.07;;;29.80;99.90;;;;;;5008070;28;20433;-72
2022/06/05 13:22:44;;;;;;;4.57;2.30;;;29.30;99.90;;;;;;5008804;28;20183;-72
2022/06/05 13:25:23;;;;;;;4.23;2.30;;;28.30;99.90;;;;;;5008593;28;20450;-72
2022/06/05 13:28:07;;;;;;;3.77;2.63;;;27.70;99.90;;;;;;5008036;28;20792;-72